createdAt,value
2018-01-21T00:00:51.235Z,99157.55
2018-01-21T00:01:53.239Z,99154.42
2018-01-21T00:02:55.169Z,99159.45
2018-01-21T00:04:07.135Z,99159.27
2018-01-21T00:05:10.861Z,99158.72
2018-01-21T00:06:13.392Z,99161.20
2018-01-21T00:07:15.347Z,99159.77
2018-01-21T00:08:17.256Z,99160.47
2018-01-21T00:09:19.291Z,99166.16
2018-01-21T00:10:22.196Z,99166.17
2018-01-21T00:11:24.968Z,99162.96
2018-01-21T00:12:26.908Z,99165.05
2018-01-21T00:13:28.819Z,99163.71
2018-01-21T00:14:30.743Z,99166.77
2018-01-21T00:15:32.773Z,99168.73
2018-01-21T00:16:34.760Z,99164.63
2018-01-21T00:17:37.768Z,99164.42
2018-01-21T00:18:40.665Z,99164.70
2018-01-21T00:19:42.695Z,99167.11
2018-01-21T00:20:44.836Z,99169.16
2018-01-21T00:21:46.767Z,99166.92
2018-01-21T00:22:57.020Z,99169.33
2018-01-21T00:23:59.032Z,99172.60
2018-01-21T00:25:01.306Z,99172.78
2018-01-21T00:26:03.248Z,99170.18
2018-01-21T00:27:07.333Z,99173.00
2018-01-21T00:28:09.256Z,99175.95
2018-01-21T00:29:11.261Z,99184.69
2018-01-21T00:30:13.197Z,99182.55
2018-01-21T00:31:15.272Z,99187.69
2018-01-21T00:32:17.263Z,99182.95
2018-01-21T00:33:19.171Z,99187.95
2018-01-21T00:34:21.245Z,99183.73
2018-01-21T00:35:23.180Z,99180.66
2018-01-21T00:36:25.041Z,99171.97
2018-01-21T00:37:26.964Z,99175.02
2018-01-21T00:38:34.931Z,99177.12
2018-01-21T00:39:36.828Z,99168.67
2018-01-21T00:40:38.736Z,99172.13
2018-01-21T00:41:41.690Z,99174.24
2018-01-21T00:42:43.688Z,99177.73
2018-01-21T00:43:50.189Z,99171.94
2018-01-21T00:44:53.817Z,99170.98
2018-01-21T00:45:55.880Z,99180.13
2018-01-21T00:46:57.872Z,99175.15
2018-01-21T00:47:59.812Z,99173.22
2018-01-21T00:49:02.305Z,99174.98
2018-01-21T00:50:04.418Z,99177.04
2018-01-21T00:51:07.030Z,99177.11
2018-01-21T00:52:08.930Z,99185.65
2018-01-21T00:53:10.864Z,99185.16
2018-01-21T00:54:13.684Z,99180.64
2018-01-21T00:55:15.752Z,99193.47
2018-01-21T00:56:17.687Z,99189.09
2018-01-21T00:57:19.655Z,99192.45
2018-01-21T00:58:22.451Z,99202.04
2018-01-21T00:59:24.335Z,99202.64
2018-01-21T01:00:26.352Z,99204.52
2018-01-21T01:01:28.409Z,99207.08
2018-01-21T01:02:30.376Z,99208.31
2018-01-21T01:03:33.011Z,99204.70
2018-01-21T01:04:35.611Z,99201.17
2018-01-21T01:05:38.450Z,99206.58
2018-01-21T01:06:40.377Z,99210.53
2018-01-21T01:07:42.337Z,99206.58
2018-01-21T01:08:44.322Z,99207.84
2018-01-21T01:09:46.267Z,99210.29
2018-01-21T01:10:48.225Z,99211.25
2018-01-21T01:11:50.134Z,99216.30
2018-01-21T01:12:52.304Z,99212.60
2018-01-21T01:13:54.224Z,99219.67
2018-01-21T01:14:56.097Z,99222.70
2018-01-21T01:15:58.100Z,99223.06
2018-01-21T01:16:59.960Z,99225.78
2018-01-21T01:18:01.897Z,99227.36
2018-01-21T01:19:03.907Z,99224.67
2018-01-21T01:20:05.998Z,99228.48
2018-01-21T01:21:07.932Z,99232.97
2018-01-21T01:22:09.876Z,99230.53
2018-01-21T01:23:11.775Z,99231.65
2018-01-21T01:24:13.664Z,99242.70
2018-01-21T01:25:15.740Z,99240.55
2018-01-21T01:26:17.763Z,99242.27
2018-01-21T01:27:19.785Z,99242.17
2018-01-21T01:28:21.691Z,99241.83
2018-01-21T01:29:23.590Z,99247.52
2018-01-21T01:30:25.641Z,99242.50
2018-01-21T01:31:27.544Z,99249.39
2018-01-21T01:32:32.569Z,99255.19
2018-01-21T01:33:34.574Z,99255.98
2018-01-21T01:34:36.624Z,99256.05
2018-01-21T01:35:38.523Z,99258.05
2018-01-21T01:36:40.461Z,99258.66
2018-01-21T01:37:42.432Z,99262.32
2018-01-21T01:38:44.433Z,99268.38
2018-01-21T01:39:46.373Z,99273.83
2018-01-21T01:40:48.304Z,99270.88
2018-01-21T01:41:50.432Z,99270.11
2018-01-21T01:42:52.520Z,99273.00
2018-01-21T01:43:54.587Z,99273.36
2018-01-21T01:44:56.574Z,99271.02
2018-01-21T01:45:58.577Z,99277.95
2018-01-21T01:47:00.564Z,99281.14
2018-01-21T01:48:02.478Z,99282.06
2018-01-21T01:49:04.472Z,99280.88
2018-01-21T01:50:06.540Z,99279.23
2018-01-21T01:51:09.344Z,99279.59
2018-01-21T01:52:11.388Z,99289.81
2018-01-21T01:53:13.304Z,99287.91
2018-01-21T01:54:16.179Z,99291.69
2018-01-21T01:55:18.217Z,99293.95
2018-01-21T01:56:20.172Z,99300.08
2018-01-21T01:57:22.084Z,99301.79
2018-01-21T01:58:24.055Z,99302.55
2018-01-21T01:59:25.968Z,99297.65
2018-01-21T02:00:27.981Z,99299.80
2018-01-21T02:01:29.924Z,99300.30
2018-01-21T02:02:31.814Z,99305.48
2018-01-21T02:03:33.738Z,99307.02
2018-01-21T02:04:35.755Z,99306.08
2018-01-21T02:05:37.742Z,99307.56
2018-01-21T02:06:39.707Z,99308.06
2018-01-21T02:07:41.632Z,99310.58
2018-01-21T02:08:43.519Z,99311.20
2018-01-21T02:09:45.445Z,99312.00
2018-01-21T02:10:47.476Z,99307.72
2018-01-21T02:11:49.623Z,99312.63
2018-01-21T02:12:51.596Z,99315.08
2018-01-21T02:13:53.520Z,99318.27
2018-01-21T02:14:55.439Z,99319.06
2018-01-21T02:15:57.587Z,99316.45
2018-01-21T02:17:04.149Z,99314.98
2018-01-21T02:18:06.111Z,99317.30
2018-01-21T02:19:08.104Z,99316.20
2018-01-21T02:20:10.151Z,99323.37
2018-01-21T02:21:12.240Z,99323.41
2018-01-21T02:22:14.128Z,99325.22
2018-01-21T02:23:16.045Z,99327.61
2018-01-21T02:24:18.088Z,99324.38
2018-01-21T02:25:20.123Z,99327.39
2018-01-21T02:26:22.096Z,99332.14
2018-01-21T02:27:23.991Z,99332.72
2018-01-21T02:28:25.918Z,99335.05
2018-01-21T02:29:27.847Z,99335.81
2018-01-21T02:30:29.861Z,99342.16
2018-01-21T02:31:42.377Z,99339.66
2018-01-21T02:32:44.342Z,99343.78
2018-01-21T02:33:46.261Z,99344.44
2018-01-21T02:34:48.331Z,99349.11
2018-01-21T02:35:50.267Z,99348.67
2018-01-21T02:36:52.144Z,99347.31
2018-01-21T02:37:54.923Z,99353.28
2018-01-21T02:38:56.814Z,99349.12
2018-01-21T02:39:58.721Z,99344.13
2018-01-21T02:41:00.656Z,99347.23
2018-01-21T02:42:02.575Z,99354.11
2018-01-21T02:43:04.756Z,99355.13
2018-01-21T02:44:06.640Z,99352.81
2018-01-21T02:45:08.564Z,99354.78
2018-01-21T02:46:10.497Z,99349.91
2018-01-21T02:47:12.545Z,99352.63
2018-01-21T02:48:14.448Z,99350.14
2018-01-21T02:49:16.377Z,99351.84
2018-01-21T02:50:18.404Z,99350.91
2018-01-21T02:51:20.313Z,99353.00
2018-01-21T02:52:22.210Z,99353.48
2018-01-21T02:53:24.483Z,99353.85
2018-01-21T02:54:26.405Z,99358.69
2018-01-21T02:55:28.479Z,99360.34
2018-01-21T02:56:30.415Z,99366.62
2018-01-21T02:57:32.295Z,99363.85
2018-01-21T02:58:34.208Z,99364.28
2018-01-21T02:59:36.160Z,99365.31
2018-01-21T03:00:38.088Z,99368.51
2018-01-21T03:01:40.070Z,99373.46
2018-01-21T03:02:42.053Z,99371.20
2018-01-21T03:03:44.135Z,99371.22
2018-01-21T03:04:46.136Z,99376.23
2018-01-21T03:05:48.049Z,99378.16
2018-01-21T03:06:49.983Z,99378.11
2018-01-21T03:07:51.844Z,99385.92
2018-01-21T03:08:53.804Z,99382.27
2018-01-21T03:09:55.752Z,99385.77
2018-01-21T03:10:57.654Z,99386.55
2018-01-21T03:11:59.721Z,99386.08
2018-01-21T03:13:01.603Z,99393.09
2018-01-21T03:14:03.569Z,99393.66
2018-01-21T03:15:05.471Z,99386.89
2018-01-21T03:16:07.440Z,99392.45
2018-01-21T03:17:09.401Z,99395.17
2018-01-21T03:18:11.440Z,99398.47
2018-01-21T03:19:13.367Z,99400.33
2018-01-21T03:20:15.452Z,99402.22
2018-01-21T03:21:17.406Z,99405.07
2018-01-21T03:22:19.310Z,99411.19
2018-01-21T03:23:21.332Z,99420.96
2018-01-21T03:24:24.439Z,99418.80
2018-01-21T03:25:30.128Z,99415.13
2018-01-21T03:26:32.054Z,99418.17
2018-01-21T03:27:34.439Z,99418.73
2018-01-21T03:28:43.370Z,99428.70
2018-01-21T03:29:45.426Z,99429.93
2018-01-21T03:30:48.365Z,99430.36
2018-01-21T03:31:50.240Z,99432.50
2018-01-21T03:32:52.132Z,99430.00
2018-01-21T03:33:54.066Z,99434.73
2018-01-21T03:34:56.115Z,99432.88
2018-01-21T03:35:58.106Z,99435.45
2018-01-21T03:37:00.034Z,99432.86
2018-01-21T03:38:01.970Z,99438.05
2018-01-21T03:39:09.908Z,99439.69
2018-01-21T03:40:11.817Z,99438.27
2018-01-21T03:41:13.855Z,99444.64
2018-01-21T03:42:16.541Z,99443.84
2018-01-21T03:43:18.524Z,99445.16
2018-01-21T03:44:20.479Z,99446.02
2018-01-21T03:45:22.492Z,99449.73
2018-01-21T03:46:25.157Z,99445.87
2018-01-21T03:47:27.101Z,99450.09
2018-01-21T03:48:29.069Z,99449.95
2018-01-21T03:49:31.071Z,99456.50
2018-01-21T03:50:33.119Z,99457.04
2018-01-21T03:51:35.032Z,99460.02
2018-01-21T03:52:36.971Z,99462.16
2018-01-21T03:53:38.922Z,99465.11
2018-01-21T03:54:40.988Z,99465.23
2018-01-21T03:55:43.010Z,99463.95
2018-01-21T03:56:44.987Z,99469.56
2018-01-21T03:57:46.879Z,99472.42
2018-01-21T03:58:48.968Z,99473.77
2018-01-21T03:59:50.883Z,99473.58
2018-01-21T04:00:52.790Z,99475.34
2018-01-21T04:01:54.696Z,99486.14
2018-01-21T04:02:56.624Z,99487.73
2018-01-21T04:03:58.636Z,99485.58
2018-01-21T04:05:00.709Z,99492.09
2018-01-21T04:06:02.642Z,99493.31
2018-01-21T04:07:04.660Z,99493.38
2018-01-21T04:08:06.764Z,99492.31
2018-01-21T04:09:08.639Z,99497.05
2018-01-21T04:10:10.541Z,99505.22
2018-01-21T04:11:12.432Z,99501.41
2018-01-21T04:12:14.394Z,99513.11
2018-01-21T04:13:16.362Z,99518.63
2018-01-21T04:14:18.301Z,99516.85
2018-01-21T04:15:20.528Z,99519.31
2018-01-21T04:16:22.419Z,99520.72
2018-01-21T04:17:24.291Z,99520.67
2018-01-21T04:18:26.296Z,99521.44
2018-01-21T04:19:28.316Z,99521.41
2018-01-21T04:20:30.351Z,99518.99
2018-01-21T04:21:32.467Z,99521.87
2018-01-21T04:22:34.506Z,99527.49
2018-01-21T04:23:36.412Z,99530.08
2018-01-21T04:24:38.329Z,99532.78
2018-01-21T04:25:40.399Z,99530.34
2018-01-21T04:26:47.699Z,99530.69
2018-01-21T04:27:49.649Z,99531.41
2018-01-21T04:28:51.678Z,99535.75
2018-01-21T04:29:58.968Z,99534.66
2018-01-21T04:31:01.773Z,99533.55
2018-01-21T04:32:03.707Z,99537.17
2018-01-21T04:33:05.871Z,99535.44
2018-01-21T04:34:07.723Z,99539.39
2018-01-21T04:35:09.749Z,99537.55
2018-01-21T04:36:11.766Z,99546.99
2018-01-21T04:37:13.667Z,99546.92
2018-01-21T04:38:15.580Z,99551.31
2018-01-21T04:39:17.463Z,99550.20
2018-01-21T04:40:19.402Z,99551.45
2018-01-21T04:41:21.316Z,99558.71
2018-01-21T04:42:23.160Z,99557.41
2018-01-21T04:43:25.136Z,99559.26
2018-01-21T04:44:27.123Z,99557.48
2018-01-21T04:45:29.013Z,99557.04
2018-01-21T04:46:30.931Z,99559.20
2018-01-21T04:47:32.947Z,99561.78
2018-01-21T04:48:35.113Z,99564.60
2018-01-21T04:49:37.129Z,99570.64
2018-01-21T04:50:40.032Z,99568.56
2018-01-21T04:51:41.918Z,99574.16
2018-01-21T04:52:43.800Z,99574.09
2018-01-21T04:53:45.679Z,99576.98
2018-01-21T04:54:47.630Z,99580.11
2018-01-21T04:55:49.664Z,99577.11
2018-01-21T04:56:51.728Z,99583.92
2018-01-21T04:57:53.677Z,99584.10
2018-01-21T04:58:55.636Z,99587.48
2018-01-21T04:59:57.500Z,99590.83
2018-01-21T05:00:59.467Z,99590.50
2018-01-21T05:02:01.327Z,99586.12
2018-01-21T05:03:03.221Z,99591.73
2018-01-21T05:04:05.421Z,99588.30
2018-01-21T05:05:07.381Z,99586.14
2018-01-21T05:06:09.384Z,99588.24
2018-01-21T05:07:12.320Z,99593.02
2018-01-21T05:08:14.280Z,99589.05
2018-01-21T05:09:16.252Z,99594.58
2018-01-21T05:10:18.341Z,99598.39
2018-01-21T05:11:20.272Z,99597.52
2018-01-21T05:12:22.180Z,99596.97
2018-01-21T05:13:24.164Z,99598.20
2018-01-21T05:14:26.054Z,99601.71
2018-01-21T05:15:37.415Z,99599.32
2018-01-21T05:16:39.385Z,99602.32
2018-01-21T05:17:41.329Z,99599.38
2018-01-21T05:18:45.235Z,99597.70
2018-01-21T05:19:47.230Z,99601.16
2018-01-21T05:20:49.284Z,99598.92
2018-01-21T05:21:51.192Z,99603.13
2018-01-21T05:22:53.115Z,99604.03
2018-01-21T05:24:00.552Z,99611.80
2018-01-21T05:25:02.503Z,99615.30
2018-01-21T05:26:04.994Z,99621.22
2018-01-21T05:27:07.028Z,99620.70
2018-01-21T05:28:08.914Z,99621.09
2018-01-21T05:29:10.850Z,99628.76
2018-01-21T05:30:12.724Z,99634.31
2018-01-21T05:31:14.677Z,99642.86
2018-01-21T05:32:16.720Z,99642.81
2018-01-21T05:33:18.628Z,99650.06
2018-01-21T05:34:20.558Z,99648.83
2018-01-21T05:35:29.676Z,99651.41
2018-01-21T05:36:31.685Z,99655.84
2018-01-21T05:37:33.771Z,99654.06
2018-01-21T05:38:37.645Z,99660.28
2018-01-21T05:39:39.686Z,99662.88
2018-01-21T05:40:41.645Z,99662.98
2018-01-21T05:41:49.764Z,99667.55
2018-01-21T05:42:51.740Z,99668.91
2018-01-21T05:43:53.670Z,99669.83
2018-01-21T05:44:55.631Z,99672.48
2018-01-21T05:45:57.527Z,99672.78
2018-01-21T05:46:59.416Z,99671.54
2018-01-21T05:48:01.360Z,99673.75
2018-01-21T05:49:03.304Z,99673.83
2018-01-21T05:50:05.523Z,99680.77
2018-01-21T05:51:07.724Z,99684.64
2018-01-21T05:52:09.650Z,99688.95
2018-01-21T05:53:11.564Z,99682.02
2018-01-21T05:54:13.686Z,99686.75
2018-01-21T05:55:15.580Z,99685.88
2018-01-21T05:56:17.738Z,99690.68
2018-01-21T05:57:20.588Z,99687.18
2018-01-21T05:58:22.656Z,99690.13
2018-01-21T05:59:24.998Z,99692.72
2018-01-21T06:00:27.847Z,99691.12
2018-01-21T06:01:29.727Z,99701.89
2018-01-21T06:02:31.639Z,99699.36
2018-01-21T06:03:33.807Z,99710.19
2018-01-21T06:04:36.658Z,99708.09
2018-01-21T06:05:44.695Z,99711.22
2018-01-21T06:06:46.604Z,99715.03
2018-01-21T06:07:48.615Z,99717.20
2018-01-21T06:08:50.533Z,99722.41
2018-01-21T06:09:52.496Z,99723.16
2018-01-21T06:10:54.477Z,99725.05
2018-01-21T06:11:56.506Z,99732.73
2018-01-21T06:12:58.403Z,99731.77
2018-01-21T06:14:00.288Z,99736.09
2018-01-21T06:15:02.244Z,99739.59
2018-01-21T06:16:04.296Z,99743.45
2018-01-21T06:17:06.193Z,99744.00
2018-01-21T06:18:08.200Z,99743.90
2018-01-21T06:19:10.166Z,99746.53
2018-01-21T06:20:12.209Z,99741.03
2018-01-21T06:21:14.321Z,99749.16
2018-01-21T06:22:20.354Z,99752.18
2018-01-21T06:23:22.279Z,99747.77
2018-01-21T06:24:24.225Z,99749.97
2018-01-21T06:25:26.175Z,99750.51
2018-01-21T06:26:28.213Z,99753.14
2018-01-21T06:27:30.148Z,99753.95
2018-01-21T06:28:32.005Z,99757.41
2018-01-21T06:29:33.899Z,99761.34
2018-01-21T06:30:42.460Z,99763.81
2018-01-21T06:31:44.583Z,99762.19
2018-01-21T06:32:46.489Z,99763.69
2018-01-21T06:33:48.484Z,99770.91
2018-01-21T06:34:50.388Z,99773.44
2018-01-21T06:35:52.353Z,99775.59
2018-01-21T06:36:55.243Z,99777.70
2018-01-21T06:37:57.259Z,99779.42
2018-01-21T06:38:59.930Z,99781.56
2018-01-21T06:40:02.452Z,99777.22
2018-01-21T06:41:04.413Z,99778.98
2018-01-21T06:42:06.355Z,99780.61
2018-01-21T06:43:09.285Z,99779.20
2018-01-21T06:44:11.795Z,99780.16
2018-01-21T06:45:13.757Z,99776.77
2018-01-21T06:46:15.802Z,99784.11
2018-01-21T06:47:17.803Z,99781.19
2018-01-21T06:48:19.706Z,99784.11
2018-01-21T06:49:22.003Z,99790.08
2018-01-21T06:50:24.356Z,99793.24
2018-01-21T06:51:26.414Z,99796.64
2018-01-21T06:52:28.365Z,99795.78
2018-01-21T06:53:30.321Z,99791.91
2018-01-21T06:54:32.198Z,99796.63
2018-01-21T06:55:34.093Z,99810.79
2018-01-21T06:56:36.156Z,99813.77
2018-01-21T06:57:38.054Z,99816.73
2018-01-21T06:58:39.912Z,99818.50
2018-01-21T06:59:41.851Z,99816.34
2018-01-21T07:00:43.732Z,99821.04
2018-01-21T07:01:45.833Z,99819.45
2018-01-21T07:02:47.748Z,99829.75
2018-01-21T07:03:49.645Z,99828.98
2018-01-21T07:04:51.520Z,99836.22
2018-01-21T07:05:53.403Z,99837.02
2018-01-21T07:06:55.344Z,99842.63
2018-01-21T07:07:57.428Z,99846.84
2018-01-21T07:08:59.605Z,99849.51
2018-01-21T07:10:01.487Z,99848.25
2018-01-21T07:11:03.490Z,99849.08
2018-01-21T07:12:07.481Z,99851.75
2018-01-21T07:13:09.425Z,99852.95
2018-01-21T07:14:15.179Z,99854.72
2018-01-21T07:15:17.619Z,99858.50
2018-01-21T07:16:19.551Z,99862.66
2018-01-21T07:17:21.513Z,99863.52
2018-01-21T07:18:23.580Z,99873.05
2018-01-21T07:19:25.498Z,99868.32
2018-01-21T07:20:27.553Z,99867.64
2018-01-21T07:21:29.593Z,99871.81
2018-01-21T07:23:40.128Z,99873.05
2018-01-21T07:24:42.055Z,99874.34
2018-01-21T07:25:44.352Z,99879.94
2018-01-21T07:26:46.692Z,99878.22
2018-01-21T07:27:48.666Z,99880.86
2018-01-21T07:28:50.839Z,99889.08
2018-01-21T07:29:53.599Z,99888.61
2018-01-21T07:30:56.345Z,99887.41
2018-01-21T07:31:58.275Z,99885.72
2018-01-21T07:33:00.236Z,99891.37
2018-01-21T07:34:02.454Z,99893.86
2018-01-21T07:35:05.141Z,99897.70
2018-01-21T07:36:13.374Z,99892.19
2018-01-21T07:37:15.542Z,99893.05
2018-01-21T07:38:18.381Z,99906.02
2018-01-21T07:39:20.462Z,99904.64
2018-01-21T07:40:24.802Z,99909.23
2018-01-21T07:41:26.907Z,99910.15
2018-01-21T07:42:31.808Z,99918.75
2018-01-21T07:43:33.901Z,99919.57
2018-01-21T07:44:35.930Z,99920.86
2018-01-21T07:45:39.272Z,99920.86
2018-01-21T07:46:41.888Z,99939.91
2018-01-21T07:47:43.890Z,99939.08
2018-01-21T07:48:49.334Z,99936.36
2018-01-21T07:49:52.796Z,99939.30
2018-01-21T07:50:55.903Z,99938.81
2018-01-21T07:51:59.884Z,99942.80
2018-01-21T07:53:03.481Z,99950.11
2018-01-21T07:54:08.232Z,99953.98
2018-01-21T07:55:12.140Z,99948.77
2018-01-21T07:56:17.317Z,99955.52
2018-01-21T07:57:21.061Z,99957.34
2018-01-21T07:58:25.674Z,99966.44
2018-01-21T07:59:30.568Z,99967.72
2018-01-21T08:00:34.035Z,99968.89
2018-01-21T08:01:36.790Z,99973.62
2018-01-21T08:02:39.315Z,99976.64
2018-01-21T08:03:42.701Z,99978.45
2018-01-21T08:04:46.089Z,99984.05
2018-01-21T08:05:52.281Z,99987.50
2018-01-21T08:06:54.541Z,99984.05
2018-01-21T08:07:56.631Z,99982.77
2018-01-21T08:08:59.823Z,99989.52
2018-01-21T08:10:01.780Z,99990.81
2018-01-21T08:11:04.919Z,99991.25
2018-01-21T08:12:07.478Z,99997.23
2018-01-21T08:13:09.689Z,100001.50
2018-01-21T08:14:11.779Z,100000.64
2018-01-21T08:15:13.883Z,100002.83
2018-01-21T08:16:17.768Z,100007.06
2018-01-21T08:17:20.011Z,100010.45
2018-01-21T08:18:22.256Z,100009.50
2018-01-21T08:19:24.233Z,100014.34
2018-01-21T08:20:26.324Z,100008.77
2018-01-21T08:21:29.622Z,100013.05
2018-01-21T08:22:31.648Z,100016.05
2018-01-21T08:23:34.018Z,100020.28
2018-01-21T08:24:36.034Z,100025.83
2018-01-21T08:25:37.933Z,100026.31
2018-01-21T08:26:40.000Z,100038.43
2018-01-21T08:27:42.644Z,100036.66
2018-01-21T08:28:44.782Z,100042.61
2018-01-21T08:29:46.804Z,100044.77
2018-01-21T08:30:48.766Z,100049.07
2018-01-21T08:31:50.804Z,100051.35
2018-01-21T08:32:52.816Z,100056.92
2018-01-21T08:34:01.146Z,100060.41
2018-01-21T08:35:09.519Z,100060.80
2018-01-21T08:36:17.829Z,100062.86
2018-01-21T08:37:26.044Z,100068.13
2018-01-21T08:38:34.059Z,100066.70
2018-01-21T08:39:42.500Z,100067.66
2018-01-21T08:52:51.759Z,100099.89
2018-01-21T08:54:01.688Z,100100.23
2018-01-21T08:55:08.828Z,100105.84
2018-01-21T08:56:15.045Z,100110.50
2018-01-21T08:57:21.348Z,100110.80
2018-01-21T08:58:28.757Z,100117.34
2018-01-21T08:59:35.820Z,100120.11
2018-01-21T09:00:42.147Z,100121.41
2018-01-21T09:01:48.713Z,100121.28
2018-01-21T09:02:55.115Z,100125.55
2018-01-21T09:04:01.333Z,100128.65
2018-01-21T09:05:07.534Z,100129.91
2018-01-21T09:06:13.809Z,100138.09
2018-01-21T09:07:20.162Z,100138.39
2018-01-21T09:08:26.305Z,100143.57
2018-01-21T09:09:34.568Z,100151.64
2018-01-21T09:10:40.785Z,100150.82
2018-01-21T09:11:46.998Z,100148.23
2018-01-21T09:12:53.179Z,100153.74
2018-01-21T09:13:59.340Z,100152.89
2018-01-21T09:15:05.572Z,100153.70
2018-01-21T09:16:11.764Z,100160.66
2018-01-21T09:17:18.056Z,100155.00
2018-01-21T09:18:24.208Z,100156.29
2018-01-21T09:19:30.815Z,100159.75
2018-01-21T09:20:37.312Z,100162.46
2018-01-21T09:21:45.005Z,100159.88
2018-01-21T09:22:52.260Z,100166.34
2018-01-21T09:23:58.397Z,100170.27
2018-01-21T09:25:04.285Z,100171.52
2018-01-21T09:26:10.623Z,100178.81
2018-01-21T09:27:16.852Z,100172.68
2018-01-21T09:28:23.288Z,100178.63
2018-01-21T09:29:29.443Z,100172.11
2018-01-21T09:30:35.719Z,100176.13
2018-01-21T09:31:41.876Z,100176.05
2018-01-21T09:32:48.064Z,100175.23
2018-01-21T09:33:54.221Z,100172.97
2018-01-21T09:35:00.380Z,100184.02
2018-01-21T09:36:07.148Z,100178.40
2018-01-21T09:37:13.276Z,100183.48
2018-01-21T09:38:19.439Z,100185.25
2018-01-21T09:39:25.554Z,100192.41
2018-01-21T09:40:33.636Z,100197.25
2018-01-21T09:41:40.736Z,100199.98
2018-01-21T09:42:46.912Z,100197.78
2018-01-21T09:43:53.166Z,100203.77
2018-01-21T09:44:59.352Z,100206.27
2018-01-21T09:46:05.574Z,100211.92
2018-01-21T09:47:11.799Z,100209.72
2018-01-21T09:48:18.074Z,100211.88
2018-01-21T09:49:24.227Z,100211.11
2018-01-21T09:50:30.572Z,100213.61
2018-01-21T09:51:37.171Z,100212.60
2018-01-21T09:52:43.343Z,100222.05
2018-01-21T09:53:50.259Z,100216.34
2018-01-21T09:54:56.563Z,100215.85
2018-01-21T09:56:03.844Z,100215.80
2018-01-21T09:57:10.055Z,100212.59
2018-01-21T09:58:16.587Z,100214.25
2018-01-21T09:59:23.028Z,100209.06
2018-01-21T10:00:29.385Z,100213.22
2018-01-21T10:01:35.549Z,100210.20
2018-01-21T10:02:41.705Z,100216.52
2018-01-21T10:03:47.979Z,100213.27
2018-01-21T10:04:54.171Z,100211.66
2018-01-21T10:06:00.319Z,100210.80
2018-01-21T10:07:06.475Z,100216.67
2018-01-21T10:08:12.548Z,100214.33
2018-01-21T10:09:18.951Z,100211.11
2018-01-21T10:10:26.078Z,100210.75
2018-01-21T10:11:32.746Z,100217.71
2018-01-21T10:12:40.073Z,100217.29
2018-01-21T10:13:46.241Z,100215.86
2018-01-21T10:14:52.403Z,100223.72
2018-01-21T10:15:58.347Z,100227.85
2018-01-21T10:17:05.399Z,100229.23
2018-01-21T10:18:11.533Z,100230.56
2018-01-21T10:19:17.745Z,100239.88
2018-01-21T10:20:23.959Z,100238.84
2018-01-21T10:21:30.161Z,100235.77
2018-01-21T10:22:36.399Z,100235.95
2018-01-21T10:23:42.642Z,100238.77
2018-01-21T10:24:48.986Z,100236.91
2018-01-21T10:25:55.137Z,100239.89
2018-01-21T10:27:01.351Z,100239.51
2018-01-21T10:28:07.568Z,100241.02
2018-01-21T10:29:13.708Z,100243.92
2018-01-21T10:30:19.961Z,100242.62
2018-01-21T10:31:26.501Z,100245.84
2018-01-21T10:32:32.769Z,100240.70
2018-01-21T10:33:40.559Z,100247.55
2018-01-21T10:34:46.849Z,100252.19
2018-01-21T10:35:53.265Z,100246.03
2018-01-21T10:36:59.393Z,100255.78
2018-01-21T10:38:06.983Z,100249.98
2018-01-21T10:39:13.942Z,100256.09
2018-01-21T10:40:24.506Z,100256.16
2018-01-21T10:41:30.419Z,100250.41
2018-01-21T10:42:36.831Z,100255.28
2018-01-21T10:43:43.606Z,100255.47
2018-01-21T10:44:50.252Z,100255.84
2018-01-21T10:45:56.600Z,100255.05
2018-01-21T10:47:02.999Z,100254.61
2018-01-21T10:48:09.494Z,100255.90
2018-01-21T10:49:16.013Z,100258.77
2018-01-21T10:50:22.343Z,100254.36
2018-01-21T10:51:28.417Z,100263.06
2018-01-21T10:52:34.910Z,100267.10
2018-01-21T10:53:41.424Z,100269.50
2018-01-21T10:54:47.781Z,100267.23
2018-01-21T10:55:54.169Z,100266.42
2018-01-21T10:57:00.362Z,100264.27
2018-01-21T10:58:06.678Z,100266.42
2018-01-21T10:59:12.867Z,100269.51
2018-01-21T11:00:19.396Z,100273.39
2018-01-21T11:01:25.885Z,100273.22
2018-01-21T11:02:32.078Z,100277.17
2018-01-21T11:03:38.480Z,100278.66
2018-01-21T11:04:44.820Z,100285.94
2018-01-21T11:05:51.173Z,100282.05
2018-01-21T11:06:57.381Z,100287.61
2018-01-21T11:08:03.567Z,100294.48
2018-01-21T11:09:09.954Z,100288.90
2018-01-21T11:10:16.357Z,100294.41
2018-01-21T11:11:24.306Z,100295.16
2018-01-21T11:12:30.788Z,100298.49
2018-01-21T11:13:37.117Z,100302.75
2018-01-21T11:14:43.338Z,100305.72
2018-01-21T11:15:50.766Z,100307.26
2018-01-21T11:16:57.609Z,100310.29
2018-01-21T11:18:04.045Z,100310.72
2018-01-21T11:19:10.260Z,100315.92
2018-01-21T11:20:16.552Z,100315.66
2018-01-21T11:21:22.712Z,100319.63
2018-01-21T11:22:29.614Z,100319.23
2018-01-21T11:23:36.352Z,100321.96
2018-01-21T11:24:43.012Z,100330.24
2018-01-21T11:25:49.244Z,100329.42
2018-01-21T11:26:57.056Z,100332.08
2018-01-21T11:28:03.456Z,100331.10
2018-01-21T11:29:09.858Z,100331.69
2018-01-21T11:30:16.509Z,100337.59
2018-01-21T11:31:23.494Z,100335.84
2018-01-21T11:32:31.437Z,100339.20
2018-01-21T11:33:37.795Z,100346.17
2018-01-21T11:34:44.528Z,100346.02
2018-01-21T11:35:50.811Z,100344.39
2018-01-21T11:36:57.100Z,100345.80
2018-01-21T11:38:04.483Z,100346.93
2018-01-21T11:39:11.043Z,100351.25
2018-01-21T11:40:17.900Z,100346.88
2018-01-21T11:41:25.028Z,100353.30
2018-01-21T11:42:31.584Z,100352.25
2018-01-21T11:43:37.843Z,100351.71
2018-01-21T11:44:44.419Z,100357.66
2018-01-21T11:45:50.923Z,100360.86
2018-01-21T11:46:57.278Z,100362.09
2018-01-21T11:48:03.936Z,100363.72
2018-01-21T11:49:10.601Z,100370.57
2018-01-21T11:50:16.828Z,100372.69
2018-01-21T11:51:23.136Z,100375.10
2018-01-21T11:52:29.795Z,100381.64
2018-01-21T11:53:37.398Z,100379.91
2018-01-21T11:54:44.128Z,100380.73
2018-01-21T11:55:50.500Z,100379.78
2018-01-21T11:56:56.811Z,100382.25
2018-01-21T11:58:03.096Z,100387.39
2018-01-21T11:59:09.480Z,100394.19
2018-01-21T12:00:16.152Z,100387.14
2018-01-21T12:01:22.651Z,100393.14
2018-01-21T12:02:29.324Z,100396.46
2018-01-21T12:03:35.658Z,100392.83
2018-01-21T12:04:42.060Z,100393.23
2018-01-21T12:05:48.347Z,100400.83
2018-01-21T12:06:54.693Z,100396.20
2018-01-21T12:08:01.221Z,100400.48
2018-01-21T12:09:07.861Z,100402.94
2018-01-21T12:10:14.352Z,100402.28
2018-01-21T12:11:20.884Z,100404.19
2018-01-21T12:12:27.180Z,100405.03
2018-01-21T12:13:33.524Z,100411.95
2018-01-21T12:14:40.178Z,100407.13
2018-01-21T12:15:46.518Z,100410.29
2018-01-21T12:16:52.892Z,100410.23
2018-01-21T12:17:59.107Z,100410.59
2018-01-21T12:19:05.073Z,100406.13
2018-01-21T12:20:11.583Z,100420.77
2018-01-21T12:21:17.985Z,100420.34
2018-01-21T12:22:24.437Z,100417.72
2018-01-21T12:23:30.841Z,100420.41
2018-01-21T12:24:37.067Z,100414.79
2018-01-21T12:25:43.312Z,100421.22
2018-01-21T12:26:49.616Z,100417.73
2018-01-21T12:27:55.824Z,100419.09
2018-01-21T12:29:02.061Z,100426.34
2018-01-21T12:30:09.038Z,100418.91
2018-01-21T12:31:18.415Z,100424.09
2018-01-21T12:32:26.299Z,100427.37
2018-01-21T12:33:34.157Z,100433.94